Stanley, NC (28164)

1:59 AM EST on December 10, 2016 (GMT -0500)
Stanley, North Carolina | | Change Station

Elev 827 ft 35.35 °N, 81.09 °W | Updated 10 seconds ago

Clear
Clear
23.4 °F
Feels Like 23 °F
N
0.7
Wind Variable Wind from North
Gusts 0.7 mph

Today
High -- | Low -- °F
--% Chance of Precip.
Yesterday
High -- | Low -- °F
Precip. -- in
Pressure 30.48 in
Visibility 10.0 miles
Clouds Clear
Windchill 23 °F
Dew Point -25 °F
Humidity 10%
Rainfall 0.00 in
Snow Depth Not available.
7:22 AM 5:12 PM
Waxing Gibbous, 81% visible
METAR KIPJ 100645Z AUTO 00000KT 10SM CLR M07/M09 A3048 RMK AO2 T10681086
Pressure 30.48 in
Visibility 10.0 miles
Clouds Clear
Windchill 23 °F
Dew Point -25 °F
Humidity 10%
Rainfall 0.00 in
Snow Depth Not available.
7:22 AM 5:12 PM
Waxing Gibbous, 81% visible
METAR KIPJ 100645Z AUTO 00000KT 10SM CLR M07/M09 A3048 RMK AO2 T10681086

10-Day Weather Forecast

Almanac

Astronomy

Dec. 10, 2016 Rise Set
Actual Time
Civil Twilight
Nautical Twilight
Astronomical Twilight
Moon
Length of Visible Light
Length of Day
Tomorrow will be .
, % of the Moon is Illuminated

Today's Extremes

State Highs State Lows

Community

WunderPhotos

Upload Photos

1,956,527 photos uploaded!

WunderBlog® & News

Nearby

Air Quality

  Air Quality AQ Index Pollutant
Not available.

Snow Depth

Station Depth Elevation

Earthquake Activity

City Distance Mag. Time & Date
Minimum magnitude displayed is 2.5.

Coastal Water Temperatures

Place Temperature

Stations

Nearby Weather Stations

Station Location Temp. Windchill Dew Point Humidity Wind Precip. Elev Updated Type
                   

Watches & Warnings

There are currently no watches in effect.